sensor_id;sensor_type;location;lat;lon;timestamp;pressure;altitude;pressure_sealevel;temperature;humidity
44992;BME280;56865;51.618;7.406;2023-05-29T00:01:08;101429.44;;;31.00;45.21
44992;BME280;56865;51.618;7.406;2023-05-29T00:03:38;101438.16;;;31.21;45.04
44992;BME280;56865;51.618;7.406;2023-05-29T00:06:09;101436.34;;;31.21;45.28
44992;BME280;56865;51.618;7.406;2023-05-29T00:08:40;101431.72;;;30.88;45.35
44992;BME280;56865;51.618;7.406;2023-05-29T00:11:13;101434.00;;;30.96;44.96
44992;BME280;56865;51.618;7.406;2023-05-29T00:13:43;101436.84;;;31.10;44.76
44992;BME280;56865;51.618;7.406;2023-05-29T00:16:13;101445.06;;;31.23;45.38
44992;BME280;56865;51.618;7.406;2023-05-29T00:18:43;101441.28;;;31.10;44.64
44992;BME280;56865;51.618;7.406;2023-05-29T00:21:15;101443.69;;;31.15;44.41
44992;BME280;56865;51.618;7.406;2023-05-29T00:23:47;101437.91;;;30.87;44.39
44992;BME280;56865;51.618;7.406;2023-05-29T00:26:20;101444.59;;;30.94;44.04
44992;BME280;56865;51.618;7.406;2023-05-29T00:28:49;101447.78;;;31.01;45.37
44992;BME280;56865;51.618;7.406;2023-05-29T00:31:19;101453.41;;;30.74;44.55
44992;BME280;56865;51.618;7.406;2023-05-29T00:33:51;101452.81;;;30.87;44.09
44992;BME280;56865;51.618;7.406;2023-05-29T00:36:21;101456.53;;;31.02;45.06
44992;BME280;56865;51.618;7.406;2023-05-29T00:38:52;101461.69;;;31.24;45.97
44992;BME280;56865;51.618;7.406;2023-05-29T00:41:24;101453.81;;;30.44;43.85
44992;BME280;56865;51.618;7.406;2023-05-29T00:43:54;101463.59;;;31.01;44.97
44992;BME280;56865;51.618;7.406;2023-05-29T00:46:25;101473.28;;;31.01;44.98
44992;BME280;56865;51.618;7.406;2023-05-29T00:48:55;101472.50;;;30.59;44.05
44992;BME280;56865;51.618;7.406;2023-05-29T00:51:26;101471.09;;;30.52;43.86
44992;BME280;56865;51.618;7.406;2023-05-29T00:53:58;101474.84;;;30.24;43.88
44992;BME280;56865;51.618;7.406;2023-05-29T00:56:31;101477.38;;;30.68;44.21
44992;BME280;56865;51.618;7.406;2023-05-29T00:59:01;101478.41;;;30.64;44.56
44992;BME280;56865;51.618;7.406;2023-05-29T01:01:32;101482.75;;;30.65;43.99
44992;BME280;56865;51.618;7.406;2023-05-29T01:04:03;101488.94;;;30.43;44.58
44992;BME280;56865;51.618;7.406;2023-05-29T01:06:35;101489.09;;;30.40;44.49
44992;BME280;56865;51.618;7.406;2023-05-29T01:09:05;101495.44;;;30.14;44.16
44992;BME280;56865;51.618;7.406;2023-05-29T01:11:46;101492.28;;;30.06;43.07
44992;BME280;56865;51.618;7.406;2023-05-29T01:14:25;101496.03;;;30.41;44.06
44992;BME280;56865;51.618;7.406;2023-05-29T01:17:04;101504.50;;;30.07;43.47
44992;BME280;56865;51.618;7.406;2023-05-29T01:19:52;101506.13;;;30.31;44.22
44992;BME280;56865;51.618;7.406;2023-05-29T01:22:40;101507.47;;;30.20;45.06
44992;BME280;56865;51.618;7.406;2023-05-29T01:25:24;101519.97;;;30.14;45.10
44992;BME280;56865;51.618;7.406;2023-05-29T01:28:04;101508.13;;;30.04;43.86
44992;BME280;56865;51.618;7.406;2023-05-29T01:30:35;101504.59;;;30.26;44.71
44992;BME280;56865;51.618;7.406;2023-05-29T01:33:06;101512.84;;;29.72;43.21
44992;BME280;56865;51.618;7.406;2023-05-29T01:35:37;101519.94;;;29.94;43.72
44992;BME280;56865;51.618;7.406;2023-05-29T01:38:07;101527.31;;;29.84;43.78
44992;BME280;56865;51.618;7.406;2023-05-29T01:40:37;101523.03;;;29.81;42.97
44992;BME280;56865;51.618;7.406;2023-05-29T01:43:10;101513.22;;;30.07;45.03
44992;BME280;56865;51.618;7.406;2023-05-29T01:45:41;101515.38;;;29.75;44.80
44992;BME280;56865;51.618;7.406;2023-05-29T01:48:12;101520.31;;;29.61;44.93
44992;BME280;56865;51.618;7.406;2023-05-29T01:50:43;101514.22;;;29.82;45.55
44992;BME280;56865;51.618;7.406;2023-05-29T01:53:14;101518.50;;;29.85;45.10
44992;BME280;56865;51.618;7.406;2023-05-29T01:55:44;101521.06;;;29.87;44.18
44992;BME280;56865;51.618;7.406;2023-05-29T01:58:17;101519.00;;;29.95;45.10
44992;BME280;56865;51.618;7.406;2023-05-29T02:00:50;101523.28;;;29.28;44.16
44992;BME280;56865;51.618;7.406;2023-05-29T02:03:21;101521.53;;;29.74;44.83
44992;BME280;56865;51.618;7.406;2023-05-29T02:05:51;101525.56;;;29.61;45.22
44992;BME280;56865;51.618;7.406;2023-05-29T02:08:21;101518.34;;;29.66;45.22
44992;BME280;56865;51.618;7.406;2023-05-29T02:10:51;101525.13;;;29.49;45.29
44992;BME280;56865;51.618;7.406;2023-05-29T02:13:24;101521.97;;;29.63;45.93
44992;BME280;56865;51.618;7.406;2023-05-29T02:15:54;101530.09;;;29.57;44.64
44992;BME280;56865;51.618;7.406;2023-05-29T02:18:24;101516.06;;;29.34;45.14
44992;BME280;56865;51.618;7.406;2023-05-29T02:20:54;101520.03;;;29.69;45.72
44992;BME280;56865;51.618;7.406;2023-05-29T02:23:24;101521.53;;;29.74;45.80
44992;BME280;56865;51.618;7.406;2023-05-29T02:25:54;101513.59;;;29.54;45.46
44992;BME280;56865;51.618;7.406;2023-05-29T02:28:27;101520.31;;;29.61;44.66
44992;BME280;56865;51.618;7.406;2023-05-29T02:30:57;101515.78;;;29.64;46.59
44992;BME280;56865;51.618;7.406;2023-05-29T02:33:27;101519.00;;;29.73;45.52
44992;BME280;56865;51.618;7.406;2023-05-29T02:35:57;101526.53;;;29.58;47.36
44992;BME280;56865;51.618;7.406;2023-05-29T02:38:27;101528.41;;;29.32;47.00
44992;BME280;56865;51.618;7.406;2023-05-29T02:40:57;101525.19;;;29.24;46.08
44992;BME280;56865;51.618;7.406;2023-05-29T02:43:29;101518.75;;;29.33;46.22
44992;BME280;56865;51.618;7.406;2023-05-29T02:45:59;101519.91;;;29.24;47.41
44992;BME280;56865;51.618;7.406;2023-05-29T02:48:29;101527.28;;;29.14;46.81
44992;BME280;56865;51.618;7.406;2023-05-29T02:50:59;101525.72;;;29.34;47.54
44992;BME280;56865;51.618;7.406;2023-05-29T02:53:30;101518.44;;;28.93;46.28
44992;BME280;56865;51.618;7.406;2023-05-29T02:56:00;101525.28;;;28.97;47.74
44992;BME280;56865;51.618;7.406;2023-05-29T02:58:33;101530.22;;;28.81;47.76
44992;BME280;56865;51.618;7.406;2023-05-29T03:01:03;101528.47;;;28.82;47.89
44992;BME280;56865;51.618;7.406;2023-05-29T03:03:34;101535.38;;;28.84;47.27
44992;BME280;56865;51.618;7.406;2023-05-29T03:06:04;101535.91;;;28.69;47.51
44992;BME280;56865;51.618;7.406;2023-05-29T03:08:34;101538.31;;;29.24;47.38
44992;BME280;56865;51.618;7.406;2023-05-29T03:11:07;101536.59;;;28.74;46.46
44992;BME280;56865;51.618;7.406;2023-05-29T03:13:40;101534.94;;;28.97;46.98
44992;BME280;56865;51.618;7.406;2023-05-29T03:16:10;101544.50;;;28.98;47.25
44992;BME280;56865;51.618;7.406;2023-05-29T03:18:41;101537.41;;;28.76;47.96
44992;BME280;56865;51.618;7.406;2023-05-29T03:21:11;101537.56;;;28.72;47.69
44992;BME280;56865;51.618;7.406;2023-05-29T03:23:41;101534.41;;;28.62;47.87
44992;BME280;56865;51.618;7.406;2023-05-29T03:26:10;101532.13;;;28.51;48.95
44992;BME280;56865;51.618;7.406;2023-05-29T03:28:43;101541.78;;;28.50;48.52
44992;BME280;56865;51.618;7.406;2023-05-29T03:31:13;101534.34;;;28.63;48.63
44992;BME280;56865;51.618;7.406;2023-05-29T03:33:43;101531.28;;;28.50;48.29
44992;BME280;56865;51.618;7.406;2023-05-29T03:36:13;101533.09;;;28.48;48.78
44992;BME280;56865;51.618;7.406;2023-05-29T03:38:43;101540.34;;;28.40;49.01
44992;BME280;56865;51.618;7.406;2023-05-29T03:41:14;101540.34;;;28.40;49.25
44992;BME280;56865;51.618;7.406;2023-05-29T03:43:47;101532.63;;;28.10;49.69
44992;BME280;56865;51.618;7.406;2023-05-29T03:46:17;101547.06;;;27.94;49.16
44992;BME280;56865;51.618;7.406;2023-05-29T03:48:47;101546.91;;;27.98;49.17
44992;BME280;56865;51.618;7.406;2023-05-29T03:51:17;101546.13;;;28.25;49.46
44992;BME280;56865;51.618;7.406;2023-05-29T03:53:47;101541.44;;;28.34;49.21
44992;BME280;56865;51.618;7.406;2023-05-29T03:56:17;101551.94;;;28.60;49.68
44992;BME280;56865;51.618;7.406;2023-05-29T03:58:51;101545.50;;;28.43;49.84
44992;BME280;56865;51.618;7.406;2023-05-29T04:01:20;101548.84;;;28.48;49.68
44992;BME280;56865;51.618;7.406;2023-05-29T04:03:51;101549.84;;;28.44;49.50
44992;BME280;56865;51.618;7.406;2023-05-29T04:06:21;101548.38;;;28.88;48.99
44992;BME280;56865;51.618;7.406;2023-05-29T04:08:51;101547.97;;;28.75;48.62
44992;BME280;56865;51.618;7.406;2023-05-29T04:11:21;101553.38;;;28.70;49.97
44992;BME280;56865;51.618;7.406;2023-05-29T04:13:54;101554.72;;;28.82;49.95
44992;BME280;56865;51.618;7.406;2023-05-29T04:16:24;101549.97;;;28.66;49.58
44992;BME280;56865;51.618;7.406;2023-05-29T04:18:54;101555.25;;;28.65;49.62
44992;BME280;56865;51.618;7.406;2023-05-29T04:21:24;101546.47;;;28.67;50.11
44992;BME280;56865;51.618;7.406;2023-05-29T04:23:54;101543.94;;;28.64;50.57
44992;BME280;56865;51.618;7.406;2023-05-29T04:26:24;101555.63;;;28.81;49.00
44992;BME280;56865;51.618;7.406;2023-05-29T04:28:57;101555.63;;;28.81;49.43
44992;BME280;56865;51.618;7.406;2023-05-29T04:31:27;101556.88;;;28.70;47.96
44992;BME280;56865;51.618;7.406;2023-05-29T04:33:57;101559.22;;;28.78;47.40
44992;BME280;56865;51.618;7.406;2023-05-29T04:36:27;101563.88;;;28.70;47.19
44992;BME280;56865;51.618;7.406;2023-05-29T04:38:59;101570.41;;;28.83;47.13
44992;BME280;56865;51.618;7.406;2023-05-29T04:41:29;101574.88;;;29.30;47.79
44992;BME280;56865;51.618;7.406;2023-05-29T04:44:02;101568.84;;;28.78;46.96
44992;BME280;56865;51.618;7.406;2023-05-29T04:46:32;101577.03;;;28.94;47.31
44992;BME280;56865;51.618;7.406;2023-05-29T04:49:02;101579.16;;;29.08;47.92
44992;BME280;56865;51.618;7.406;2023-05-29T04:51:32;101582.91;;;29.00;47.61
44992;BME280;56865;51.618;7.406;2023-05-29T04:54:03;101591.50;;;29.31;47.71
44992;BME280;56865;51.618;7.406;2023-05-29T04:56:33;101594.00;;;29.58;48.90
44992;BME280;56865;51.618;7.406;2023-05-29T04:59:06;101587.31;;;29.00;47.75
44992;BME280;56865;51.618;7.406;2023-05-29T05:01:36;101586.06;;;29.10;46.47
44992;BME280;56865;51.618;7.406;2023-05-29T05:04:06;101585.50;;;29.02;46.60
44992;BME280;56865;51.618;7.406;2023-05-29T05:06:36;101593.84;;;29.39;46.55
44992;BME280;56865;51.618;7.406;2023-05-29T05:09:06;101597.19;;;29.66;47.20
44992;BME280;56865;51.618;7.406;2023-05-29T05:11:36;101597.41;;;29.83;47.84
44992;BME280;56865;51.618;7.406;2023-05-29T05:14:09;101586.75;;;30.10;47.65
44992;BME280;56865;51.618;7.406;2023-05-29T05:16:39;101585.53;;;29.97;46.15
44992;BME280;56865;51.618;7.406;2023-05-29T05:19:09;101590.56;;;29.56;45.65
44992;BME280;56865;51.618;7.406;2023-05-29T05:21:39;101585.59;;;30.18;46.20
44992;BME280;56865;51.618;7.406;2023-05-29T05:24:09;101597.63;;;30.01;45.08
44992;BME280;56865;51.618;7.406;2023-05-29T05:26:39;101592.19;;;30.28;44.78
44992;BME280;56865;51.618;7.406;2023-05-29T05:29:12;101596.31;;;30.34;45.76
44992;BME280;56865;51.618;7.406;2023-05-29T05:31:43;101602.22;;;30.83;46.35
44992;BME280;56865;51.618;7.406;2023-05-29T05:34:13;101597.63;;;30.87;44.74
44992;BME280;56865;51.618;7.406;2023-05-29T05:36:43;101604.75;;;31.26;45.45
44992;BME280;56865;51.618;7.406;2023-05-29T05:39:13;101603.56;;;31.12;43.71
44992;BME280;56865;51.618;7.406;2023-05-29T05:41:43;101600.72;;;30.96;44.28
44992;BME280;56865;51.618;7.406;2023-05-29T05:44:15;101599.84;;;31.37;44.10
44992;BME280;56865;51.618;7.406;2023-05-29T05:46:45;101592.13;;;31.72;45.22
44992;BME280;56865;51.618;7.406;2023-05-29T05:49:15;101586.69;;;31.56;43.24
44992;BME280;56865;51.618;7.406;2023-05-29T05:51:45;101595.97;;;31.25;42.99
44992;BME280;56865;51.618;7.406;2023-05-29T05:54:16;101598.63;;;31.44;44.22
44992;BME280;56865;51.618;7.406;2023-05-29T05:56:46;101594.19;;;31.05;43.32
44992;BME280;56865;51.618;7.406;2023-05-29T05:59:18;101596.06;;;31.24;43.95
44992;BME280;56865;51.618;7.406;2023-05-29T06:01:48;101604.16;;;30.99;44.39
44992;BME280;56865;51.618;7.406;2023-05-29T06:04:18;101606.25;;;30.90;43.75
44992;BME280;56865;51.618;7.406;2023-05-29T06:06:48;101599.75;;;30.99;43.27
44992;BME280;56865;51.618;7.406;2023-05-29T06:09:18;101611.50;;;31.71;45.45
44992;BME280;56865;51.618;7.406;2023-05-29T06:11:48;101607.72;;;32.14;44.54
44992;BME280;56865;51.618;7.406;2023-05-29T06:14:21;101608.16;;;32.23;44.70
44992;BME280;56865;51.618;7.406;2023-05-29T06:16:51;101611.53;;;32.62;42.19
44992;BME280;56865;51.618;7.406;2023-05-29T06:19:21;101610.53;;;32.82;45.29
44992;BME280;56865;51.618;7.406;2023-05-29T06:21:50;101624.50;;;32.49;41.60
44992;BME280;56865;51.618;7.406;2023-05-29T06:24:20;101622.41;;;32.91;41.56
44992;BME280;56865;51.618;7.406;2023-05-29T06:26:50;101618.44;;;32.82;42.30
44992;BME280;56865;51.618;7.406;2023-05-29T06:29:22;101617.31;;;33.04;41.70
44992;BME280;56865;51.618;7.406;2023-05-29T06:31:52;101625.31;;;33.20;43.20
44992;BME280;56865;51.618;7.406;2023-05-29T06:34:22;101619.84;;;33.23;42.00
44992;BME280;56865;51.618;7.406;2023-05-29T06:36:52;101619.00;;;33.56;42.41
44992;BME280;56865;51.618;7.406;2023-05-29T06:39:22;101623.38;;;33.40;39.68
44992;BME280;56865;51.618;7.406;2023-05-29T06:41:51;101619.94;;;33.55;40.04
44992;BME280;56865;51.618;7.406;2023-05-29T06:44:24;101612.78;;;33.89;40.14
44992;BME280;56865;51.618;7.406;2023-05-29T06:46:54;101615.34;;;34.07;41.30
44992;BME280;56865;51.618;7.406;2023-05-29T06:49:24;101612.88;;;33.88;40.29
44992;BME280;56865;51.618;7.406;2023-05-29T06:51:53;101618.13;;;34.19;40.40
44992;BME280;56865;51.618;7.406;2023-05-29T06:54:23;101620.88;;;34.02;43.25
44992;BME280;56865;51.618;7.406;2023-05-29T06:56:53;101625.19;;;33.39;40.82
44992;BME280;56865;51.618;7.406;2023-05-29T06:59:38;101630.00;;;33.64;40.52
44992;BME280;56865;51.618;7.406;2023-05-29T07:02:07;101639.25;;;33.89;39.63
44992;BME280;56865;51.618;7.406;2023-05-29T07:04:37;101627.78;;;33.89;39.06
44992;BME280;56865;51.618;7.406;2023-05-29T07:07:07;101633.66;;;34.10;40.11
44992;BME280;56865;51.618;7.406;2023-05-29T07:09:37;101639.97;;;34.23;42.27
44992;BME280;56865;51.618;7.406;2023-05-29T07:12:07;101635.47;;;34.09;40.92
44992;BME280;56865;51.618;7.406;2023-05-29T07:14:40;101633.84;;;33.25;40.27
44992;BME280;56865;51.618;7.406;2023-05-29T07:17:10;101633.22;;;33.69;41.26
44992;BME280;56865;51.618;7.406;2023-05-29T07:19:40;101644.19;;;33.95;41.45
44992;BME280;56865;51.618;7.406;2023-05-29T07:22:09;101638.03;;;34.11;39.72
44992;BME280;56865;51.618;7.406;2023-05-29T07:24:39;101637.59;;;34.18;42.78
44992;BME280;56865;51.618;7.406;2023-05-29T07:27:09;101647.44;;;34.00;41.31
44992;BME280;56865;51.618;7.406;2023-05-29T07:29:41;101656.44;;;34.28;40.21
44992;BME280;56865;51.618;7.406;2023-05-29T07:32:11;101639.44;;;34.32;41.67
44992;BME280;56865;51.618;7.406;2023-05-29T07:34:41;101637.69;;;34.17;42.70
44992;BME280;56865;51.618;7.406;2023-05-29T07:37:13;101645.03;;;34.12;41.34
44992;BME280;56865;51.618;7.406;2023-05-29T07:39:45;101646.41;;;34.03;40.54
44992;BME280;56865;51.618;7.406;2023-05-29T07:42:15;101654.09;;;33.92;40.70
44992;BME280;56865;51.618;7.406;2023-05-29T07:44:47;101645.44;;;34.20;39.43
44992;BME280;56865;51.618;7.406;2023-05-29T07:47:17;101650.16;;;33.83;39.23
44992;BME280;56865;51.618;7.406;2023-05-29T07:49:47;101641.25;;;33.68;40.28
44992;BME280;56865;51.618;7.406;2023-05-29T07:52:18;101653.22;;;34.23;42.79
44992;BME280;56865;51.618;7.406;2023-05-29T07:54:48;101656.31;;;33.99;40.80
44992;BME280;56865;51.618;7.406;2023-05-29T07:57:18;101653.72;;;34.46;42.14
44992;BME280;56865;51.618;7.406;2023-05-29T07:59:50;101654.03;;;33.60;38.91
44992;BME280;56865;51.618;7.406;2023-05-29T08:02:20;101660.31;;;33.91;39.53
44992;BME280;56865;51.618;7.406;2023-05-29T08:04:50;101661.16;;;34.07;39.83
44992;BME280;56865;51.618;7.406;2023-05-29T08:07:20;101655.63;;;33.96;38.99
44992;BME280;56865;51.618;7.406;2023-05-29T08:09:50;101651.31;;;34.41;42.03
44992;BME280;56865;51.618;7.406;2023-05-29T08:12:19;101651.25;;;34.27;40.11
44992;BME280;56865;51.618;7.406;2023-05-29T08:14:52;101661.91;;;34.41;41.86
44992;BME280;56865;51.618;7.406;2023-05-29T08:17:22;101665.44;;;34.10;40.13
44992;BME280;56865;51.618;7.406;2023-05-29T08:19:52;101668.16;;;33.92;38.83
44992;BME280;56865;51.618;7.406;2023-05-29T08:22:27;101665.03;;;34.01;39.06
44992;BME280;56865;51.618;7.406;2023-05-29T08:24:57;101673.34;;;33.78;39.50
44992;BME280;56865;51.618;7.406;2023-05-29T08:27:28;101672.25;;;34.46;41.96
44992;BME280;56865;51.618;7.406;2023-05-29T08:30:00;101662.03;;;34.54;42.36
44992;BME280;56865;51.618;7.406;2023-05-29T08:32:30;101664.38;;;34.75;41.72
44992;BME280;56865;51.618;7.406;2023-05-29T08:35:00;101669.25;;;34.52;38.35
44992;BME280;56865;51.618;7.406;2023-05-29T08:37:31;101657.09;;;33.85;38.34
44992;BME280;56865;51.618;7.406;2023-05-29T08:40:00;101662.88;;;34.71;40.77
44992;BME280;56865;51.618;7.406;2023-05-29T08:42:35;101669.00;;;34.71;39.43
44992;BME280;56865;51.618;7.406;2023-05-29T08:45:09;101670.72;;;34.42;39.68
44992;BME280;56865;51.618;7.406;2023-05-29T08:47:42;101671.88;;;34.52;38.09
44992;BME280;56865;51.618;7.406;2023-05-29T08:50:12;101665.28;;;34.90;40.12
44992;BME280;56865;51.618;7.406;2023-05-29T08:52:44;101679.69;;;33.91;37.83
44992;BME280;56865;51.618;7.406;2023-05-29T08:55:14;101683.22;;;34.54;39.53
44992;BME280;56865;51.618;7.406;2023-05-29T08:57:44;101676.09;;;34.40;38.63
44992;BME280;56865;51.618;7.406;2023-05-29T09:00:17;101680.88;;;34.49;39.05
44992;BME280;56865;51.618;7.406;2023-05-29T09:02:48;101676.00;;;34.72;38.98
44992;BME280;56865;51.618;7.406;2023-05-29T09:05:20;101681.66;;;34.96;42.16
44992;BME280;56865;51.618;7.406;2023-05-29T09:07:49;101684.00;;;34.87;41.88
44992;BME280;56865;51.618;7.406;2023-05-29T09:10:19;101675.91;;;35.04;42.15
44992;BME280;56865;51.618;7.406;2023-05-29T09:12:49;101686.06;;;34.81;39.88
44992;BME280;56865;51.618;7.406;2023-05-29T09:15:22;101688.59;;;34.69;38.77
44992;BME280;56865;51.618;7.406;2023-05-29T09:17:53;101688.22;;;34.91;39.86
44992;BME280;56865;51.618;7.406;2023-05-29T09:20:24;101688.69;;;34.81;39.41
44992;BME280;56865;51.618;7.406;2023-05-29T09:22:55;101683.84;;;35.04;40.60
44992;BME280;56865;51.618;7.406;2023-05-29T09:25:26;101682.44;;;34.98;38.40
44992;BME280;56865;51.618;7.406;2023-05-29T09:27:58;101679.25;;;35.22;42.26
44992;BME280;56865;51.618;7.406;2023-05-29T09:30:35;101683.75;;;34.91;39.63
44992;BME280;56865;51.618;7.406;2023-05-29T09:33:06;101683.66;;;34.93;40.85
44992;BME280;56865;51.618;7.406;2023-05-29T09:35:37;101682.63;;;35.24;40.22
44992;BME280;56865;51.618;7.406;2023-05-29T09:38:08;101683.47;;;35.10;39.41
44992;BME280;56865;51.618;7.406;2023-05-29T09:40:49;101685.75;;;35.17;38.14
44992;BME280;56865;51.618;7.406;2023-05-29T09:43:22;101678.69;;;35.60;41.36
44992;BME280;56865;51.618;7.406;2023-05-29T09:45:54;101698.88;;;34.89;37.64
44992;BME280;56865;51.618;7.406;2023-05-29T09:48:24;101682.66;;;35.10;39.18
44992;BME280;56865;51.618;7.406;2023-05-29T09:50:55;101682.75;;;35.08;40.82
44992;BME280;56865;51.618;7.406;2023-05-29T09:53:26;101687.41;;;35.34;41.88
44992;BME280;56865;51.618;7.406;2023-05-29T09:55:56;101683.22;;;35.15;39.70
44992;BME280;56865;51.618;7.406;2023-05-29T09:58:27;101682.22;;;34.87;38.64
44992;BME280;56865;51.618;7.406;2023-05-29T10:01:00;101682.16;;;34.73;38.05
44992;BME280;56865;51.618;7.406;2023-05-29T10:03:30;101677.91;;;35.15;39.40
44992;BME280;56865;51.618;7.406;2023-05-29T10:06:01;101686.34;;;35.22;37.48
44992;BME280;56865;51.618;7.406;2023-05-29T10:08:32;101683.38;;;34.97;38.41
44992;BME280;56865;51.618;7.406;2023-05-29T10:11:04;101678.22;;;35.25;38.94
44992;BME280;56865;51.618;7.406;2023-05-29T10:13:36;101683.16;;;35.45;39.61
44992;BME280;56865;51.618;7.406;2023-05-29T10:16:10;101673.72;;;35.83;40.89
44992;BME280;56865;51.618;7.406;2023-05-29T10:18:42;101672.88;;;35.83;41.21
44992;BME280;56865;51.618;7.406;2023-05-29T10:21:16;101670.69;;;35.75;42.54
44992;BME280;56865;51.618;7.406;2023-05-29T10:23:47;101674.50;;;35.71;39.13
44992;BME280;56865;51.618;7.406;2023-05-29T10:26:19;101683.97;;;35.31;37.36
44992;BME280;56865;51.618;7.406;2023-05-29T10:28:52;101682.66;;;35.53;39.21
44992;BME280;56865;51.618;7.406;2023-05-29T10:31:28;101676.28;;;34.98;38.81
44992;BME280;56865;51.618;7.406;2023-05-29T10:34:09;101676.50;;;34.32;38.37
44992;BME280;56865;51.618;7.406;2023-05-29T10:36:47;101676.75;;;35.77;39.93
44992;BME280;56865;51.618;7.406;2023-05-29T10:39:20;101667.75;;;35.79;39.62
44992;BME280;56865;51.618;7.406;2023-05-29T10:41:50;101665.50;;;35.88;40.23
44992;BME280;56865;51.618;7.406;2023-05-29T10:47:12;101667.56;;;35.83;38.70
44992;BME280;56865;51.618;7.406;2023-05-29T10:49:52;101676.09;;;35.73;38.02
44992;BME280;56865;51.618;7.406;2023-05-29T10:52:21;101670.59;;;35.91;37.63
44992;BME280;56865;51.618;7.406;2023-05-29T10:54:52;101664.94;;;36.10;39.21
44992;BME280;56865;51.618;7.406;2023-05-29T10:57:23;101658.53;;;36.00;38.20
44992;BME280;56865;51.618;7.406;2023-05-29T11:00:03;101660.78;;;35.35;38.09
44992;BME280;56865;51.618;7.406;2023-05-29T11:02:42;101657.16;;;35.94;38.98
44992;BME280;56865;51.618;7.406;2023-05-29T11:05:19;101658.47;;;36.41;39.41
44992;BME280;56865;51.618;7.406;2023-05-29T11:07:50;101664.38;;;36.32;39.80
44992;BME280;56865;51.618;7.406;2023-05-29T11:13:07;101656.94;;;36.24;39.20
44992;BME280;56865;51.618;7.406;2023-05-29T11:15:37;101659.69;;;35.81;38.39
44992;BME280;56865;51.618;7.406;2023-05-29T11:18:13;101662.00;;;35.73;37.02
44992;BME280;56865;51.618;7.406;2023-05-29T11:20:45;101658.00;;;35.94;38.13
44992;BME280;56865;51.618;7.406;2023-05-29T11:23:19;101656.91;;;36.11;37.47
44992;BME280;56865;51.618;7.406;2023-05-29T11:25:53;101658.34;;;36.03;36.98
44992;BME280;56865;51.618;7.406;2023-05-29T11:28:23;101656.25;;;36.08;38.80
44992;BME280;56865;51.618;7.406;2023-05-29T11:30:53;101658.56;;;35.85;38.10
44992;BME280;56865;51.618;7.406;2023-05-29T11:33:28;101648.78;;;36.00;36.50
44992;BME280;56865;51.618;7.406;2023-05-29T11:35:59;101650.88;;;36.63;39.02
44992;BME280;56865;51.618;7.406;2023-05-29T11:38:30;101649.59;;;36.55;40.43
44992;BME280;56865;51.618;7.406;2023-05-29T11:41:00;101649.94;;;36.64;37.72
44992;BME280;56865;51.618;7.406;2023-05-29T11:43:30;101647.03;;;36.54;38.63
44992;BME280;56865;51.618;7.406;2023-05-29T11:46:00;101660.03;;;36.04;37.39
44992;BME280;56865;51.618;7.406;2023-05-29T11:48:33;101644.09;;;36.04;37.05
44992;BME280;56865;51.618;7.406;2023-05-29T11:51:03;101653.66;;;36.34;36.69
44992;BME280;56865;51.618;7.406;2023-05-29T11:53:34;101646.69;;;36.99;39.39
44992;BME280;56865;51.618;7.406;2023-05-29T11:56:07;101649.22;;;36.74;37.05
44992;BME280;56865;51.618;7.406;2023-05-29T11:58:38;101646.31;;;36.52;35.56
44992;BME280;56865;51.618;7.406;2023-05-29T12:01:08;101641.97;;;36.64;35.61
44992;BME280;56865;51.618;7.406;2023-05-29T12:03:41;101641.72;;;36.67;37.05
44992;BME280;56865;51.618;7.406;2023-05-29T12:06:11;101645.56;;;37.27;39.42
44992;BME280;56865;51.618;7.406;2023-05-29T12:08:41;101639.34;;;37.41;39.74
44992;BME280;56865;51.618;7.406;2023-05-29T12:11:11;101632.63;;;37.35;40.81
44992;BME280;56865;51.618;7.406;2023-05-29T12:13:41;101634.75;;;37.17;39.47
44992;BME280;56865;51.618;7.406;2023-05-29T12:16:11;101636.91;;;37.12;39.64
44992;BME280;56865;51.618;7.406;2023-05-29T12:18:44;101645.13;;;36.56;36.25
44992;BME280;56865;51.618;7.406;2023-05-29T12:21:13;101635.50;;;36.81;36.29
44992;BME280;56865;51.618;7.406;2023-05-29T12:23:43;101643.16;;;36.85;36.67
44992;BME280;56865;51.618;7.406;2023-05-29T12:26:13;101640.38;;;36.34;35.86
44992;BME280;56865;51.618;7.406;2023-05-29T12:28:44;101638.38;;;36.90;37.24
44992;BME280;56865;51.618;7.406;2023-05-29T12:31:14;101648.16;;;36.90;38.10
44992;BME280;56865;51.618;7.406;2023-05-29T12:34:00;101636.09;;;36.18;35.61
44992;BME280;56865;51.618;7.406;2023-05-29T12:36:31;101634.50;;;36.56;38.39
44992;BME280;56865;51.618;7.406;2023-05-29T12:39:04;101642.50;;;37.33;38.32
44992;BME280;56865;51.618;7.406;2023-05-29T12:41:35;101642.59;;;37.45;38.02
44992;BME280;56865;51.618;7.406;2023-05-29T12:44:06;101637.34;;;37.56;40.07
44992;BME280;56865;51.618;7.406;2023-05-29T12:46:37;101640.13;;;37.54;37.68
44992;BME280;56865;51.618;7.406;2023-05-29T12:49:16;101635.16;;;37.50;37.82
44992;BME280;56865;51.618;7.406;2023-05-29T12:51:47;101646.66;;;37.24;38.40
44992;BME280;56865;51.618;7.406;2023-05-29T12:54:19;101649.53;;;37.34;38.06
44992;BME280;56865;51.618;7.406;2023-05-29T12:56:48;101646.28;;;36.92;35.48
44992;BME280;56865;51.618;7.406;2023-05-29T12:59:18;101643.66;;;37.92;39.43
44992;BME280;56865;51.618;7.406;2023-05-29T13:01:48;101644.25;;;37.59;37.19
44992;BME280;56865;51.618;7.406;2023-05-29T13:04:21;101648.00;;;38.17;38.42
44992;BME280;56865;51.618;7.406;2023-05-29T13:06:51;101640.41;;;38.24;37.58
44992;BME280;56865;51.618;7.406;2023-05-29T13:09:21;101641.16;;;37.65;34.98
44992;BME280;56865;51.618;7.406;2023-05-29T13:11:51;101645.59;;;37.90;36.36
44992;BME280;56865;51.618;7.406;2023-05-29T13:14:21;101641.63;;;38.56;38.60
44992;BME280;56865;51.618;7.406;2023-05-29T13:16:51;101652.81;;;38.36;35.64